To NAV CANADA Home Page Login to a new session Search on AWWS site Feedback and Comments Disclaimer Vers la page française équivalente Tips FAQ What's new on the site To the Forecasts and Observations / NOTAM section To "File a Flight Plan" website Publications and other links Update of the User's profile FIC Telephone Numbers My Weather Data Folder Route Weather Data Regional Weather Data Local Weather Data To the Forecasts and Observations / NOTAM section
Request Generated 09/30/2016 at 18:31:18 UTC . Weather information available at that time is displayed.

METAR/TAF

MOOSE JAW/AIR VICE MARSHAL C.M. MCEWEN/SK    

METAR CYMJ 301800Z 13007KT 15SM FEW130 BKN170 BKN200 17/10 A2998 RMK ACC2AC4CI1 SLP162=
METAR CYMJ 301700Z 12004KT 15SM BKN150 BKN200 14/09 A2999 RMK AC6CI1 VIRGA NW SLP165=
METAR CYMJ 301600Z 11007KT 15SM BKN180 11/08 A3000 RMK AC7 SLP168=

TAF CYMJ 301730Z 3018/0106 13010KT P6SM FEW120 BKN180
BECMG 3021/3023 VRB03KT
RMK NXT FCST BY 010000Z=
Your time UTC time
Weather data provided by Environment Canada and NAV CANADA